Time;durP1;ratioP1;P1;durP2;ratioP2;P2;SDS_P1;SDS_P2;PMS_P1;PMS_P2;Temp;Humidity;BMP_temperature;BMP_pressure;BME280_temperature;BME280_humidity;BME280_pressure;Samples;Min_cycle;Max_cycle;Signal;HPM_P1;HPM_P2
2023/07/04 00:01:21;;;;;;;5.40;3.58;;;16.60;99.90;;;-141.84;58.91;20878.94;4891442;29;20329;-75
2023/07/04 00:03:54;;;;;;;7.43;4.05;;;16.50;99.90;;;-141.84;58.91;20876.91;4889508;29;20806;-75
2023/07/04 00:06:25;;;;;;;5.63;3.60;;;16.50;99.90;;;-141.84;59.76;20893.16;4881788;29;20313;-76
2023/07/04 00:08:55;;;;;;;6.80;4.10;;;16.50;99.90;;;-141.84;58.94;20917.56;4888672;29;20584;-76
2023/07/04 00:11:24;;;;;;;9.82;4.18;;;16.50;99.90;;;-141.84;59.00;20909.44;4890905;29;20681;-76
2023/07/04 00:13:52;;;;;;;7.15;3.65;;;16.50;99.90;;;-141.84;58.61;20909.44;4907324;28;20253;-76
2023/07/04 00:16:21;;;;;;;6.63;4.10;;;16.50;99.90;;;-141.84;59.53;20895.19;4886824;28;20230;-75
2023/07/04 00:18:50;;;;;;;5.22;3.65;;;16.50;99.90;;;-141.84;58.29;20925.69;4907332;28;20571;-77
2023/07/04 00:21:20;;;;;;;8.02;4.15;;;16.50;99.90;;;-141.84;58.79;20868.78;4904363;28;20226;-75
2023/07/04 00:23:52;;;;;;;5.40;3.53;;;16.50;99.90;;;-141.84;58.96;20885.03;4889104;29;20691;-75
2023/07/04 00:26:25;;;;;;;6.28;3.70;;;16.50;99.90;;;-141.84;59.41;20866.75;4901574;29;20300;-76
2023/07/04 00:28:55;;;;;;;9.48;4.35;;;16.40;99.90;;;-141.84;59.45;20872.84;4892273;29;20234;-76
2023/07/04 00:31:24;;;;;;;4.07;3.30;;;16.40;99.90;;;-141.84;58.79;20848.44;4901286;29;20264;-75
2023/07/04 00:33:54;;;;;;;5.75;3.47;;;16.50;99.90;;;-141.84;58.66;20919.59;4909453;29;20237;-76
2023/07/04 00:36:23;;;;;;;4.82;3.58;;;16.40;99.90;;;-141.84;58.32;20935.88;4918669;28;20233;-75
2023/07/04 00:38:56;;;;;;;4.90;3.70;;;16.50;99.90;;;-141.84;59.10;20836.25;4926521;28;20569;-77
2023/07/04 00:41:30;;;;;;;5.38;3.50;;;16.50;99.90;;;-141.84;59.12;20937.91;4913166;28;20254;-76
2023/07/04 00:44:07;;;;;;;5.10;3.28;;;16.40;99.90;;;-141.84;58.96;20840.31;4908398;28;20242;-75
2023/07/04 00:46:40;;;;;;;4.18;3.38;;;16.40;99.90;;;-141.84;59.90;20850.47;4903159;28;20644;-77
2023/07/04 00:49:22;;;;;;;6.03;3.90;;;16.40;99.90;;;-141.84;59.46;20876.91;4910196;28;20230;-75
2023/07/04 00:52:04;;;;;;;6.13;3.80;;;16.30;99.90;;;-141.84;59.32;20864.72;4910754;28;20674;-75
2023/07/04 00:54:40;;;;;;;7.43;3.88;;;16.30;99.90;;;-141.84;58.68;20952.13;4903086;28;20616;-75
2023/07/04 00:57:11;;;;;;;4.35;3.60;;;16.40;99.90;;;-141.84;58.66;20944.00;4910433;28;20217;-76
2023/07/04 00:59:44;;;;;;;5.68;3.20;;;16.50;99.90;;;-141.84;58.80;20889.09;4910341;28;20705;-75
2023/07/04 01:02:15;;;;;;;4.85;3.25;;;16.50;99.90;;;-141.84;58.85;20921.63;4910592;28;20289;-75
2023/07/04 01:04:46;;;;;;;7.80;4.15;;;16.60;99.90;;;-141.84;58.00;20935.88;4924693;28;20280;-74
2023/07/04 01:07:29;;;;;;;5.43;3.30;;;16.50;99.90;;;-141.84;58.18;20931.78;4930536;28;20251;-76
2023/07/04 01:10:11;;;;;;;6.80;3.42;;;16.50;99.90;;;-141.84;57.87;20925.69;4929448;28;20229;-76
2023/07/04 01:12:41;;;;;;;6.63;3.33;;;16.60;99.90;;;-141.84;58.73;20929.75;4912781;28;20246;-78
2023/07/04 01:15:11;;;;;;;6.20;3.58;;;16.50;99.90;;;-141.84;58.80;20915.53;4899928;29;20329;-76
2023/07/04 01:17:41;;;;;;;7.32;3.63;;;16.50;99.90;;;-141.84;59.20;20897.25;4907698;29;20658;-75
2023/07/04 01:20:16;;;;;;;7.53;3.65;;;16.50;99.90;;;-141.84;59.06;20903.34;4909555;29;20241;-77
2023/07/04 01:22:57;;;;;;;5.68;3.50;;;16.50;99.90;;;-141.84;60.47;20862.69;4895765;29;20577;-77
2023/07/04 01:25:35;;;;;;;5.85;3.83;;;16.40;99.90;;;-141.84;60.82;20824.06;4902577;29;20289;-76
2023/07/04 01:28:07;;;;;;;5.78;3.67;;;16.30;99.90;;;-141.84;60.81;20830.16;4904678;29;20226;-77
2023/07/04 01:30:38;;;;;;;5.70;3.50;;;16.30;99.90;;;-141.84;61.40;20795.59;4888788;28;20749;-76
2023/07/04 01:33:08;;;;;;;4.93;3.53;;;16.20;99.90;;;-141.84;61.13;20830.16;4911752;28;20210;-76
2023/07/04 01:35:38;;;;;;;6.22;3.55;;;16.10;99.90;;;-141.84;61.03;20836.25;4929285;28;20252;-76
2023/07/04 01:38:06;;;;;;;4.95;3.20;;;16.20;99.90;;;-141.84;60.92;20828.13;4929748;28;20261;-75
2023/07/04 01:40:35;;;;;;;5.63;3.53;;;16.20;99.90;;;-141.84;61.42;20854.53;4915307;28;20268;-77
2023/07/04 01:43:05;;;;;;;6.55;3.67;;;16.20;99.90;;;-141.84;62.47;20811.84;4909517;28;20815;-75
2023/07/04 01:45:34;;;;;;;6.25;3.60;;;16.10;99.90;;;-141.84;62.16;20801.69;4909844;28;20241;-74
2023/07/04 01:48:02;;;;;;;5.22;3.40;;;16.10;99.90;;;-141.84;61.80;20832.19;4909454;28;20552;-75
2023/07/04 01:50:30;;;;;;;4.40;2.92;;;16.10;99.90;;;-141.84;62.05;20828.13;4902961;28;20252;-78
2023/07/04 01:52:59;;;;;;;6.78;3.35;;;16.10;99.90;;;-141.84;61.60;20850.47;4909081;28;20650;-73
2023/07/04 01:55:27;;;;;;;4.78;3.22;;;16.20;99.90;;;-141.84;62.49;20811.84;4908900;28;20329;-75
2023/07/04 01:57:57;;;;;;;4.85;3.13;;;16.10;99.90;;;-141.84;62.79;20799.66;4919361;28;20254;-77
2023/07/04 02:00:27;;;;;;;5.15;3.88;;;16.10;99.90;;;-141.84;62.39;20813.88;4901450;29;20824;-74
2023/07/04 02:02:56;;;;;;;5.28;3.00;;;16.10;99.90;;;-141.84;63.04;20834.22;4908839;29;20234;-76
2023/07/04 02:05:25;;;;;;;5.50;2.90;;;16.10;99.90;;;-141.84;63.53;20797.63;4871764;29;20246;-76
2023/07/04 02:07:53;;;;;;;4.18;2.72;;;16.00;99.90;;;-141.84;62.25;20870.81;4881243;29;20230;-76
2023/07/04 02:10:22;;;;;;;4.45;2.90;;;16.20;99.90;;;-141.84;62.87;20862.69;4882529;29;20536;-75
2023/07/04 02:12:50;;;;;;;6.00;3.08;;;16.20;99.90;;;-141.84;62.44;20870.81;4903875;29;20330;-77
2023/07/04 02:15:18;;;;;;;5.22;2.95;;;16.20;99.90;;;-141.84;63.35;20826.09;4896736;29;20250;-76
2023/07/04 02:17:48;;;;;;;4.65;3.03;;;16.20;99.90;;;-141.84;63.57;20817.94;4906501;29;20229;-75
2023/07/04 02:20:17;;;;;;;2.78;2.55;;;16.20;99.90;;;-141.84;63.55;20783.41;4902223;29;20321;-75
2023/07/04 02:22:45;;;;;;;6.50;3.53;;;16.10;99.90;;;-141.84;63.95;20807.78;4895029;29;20239;-76
2023/07/04 02:25:13;;;;;;;4.25;2.97;;;16.10;99.90;;;-141.84;64.26;20771.19;4885198;29;20265;-76
2023/07/04 02:27:42;;;;;;;4.07;2.88;;;16.00;99.90;;;-141.84;64.64;20765.09;4884708;29;20237;-75
2023/07/04 02:30:11;;;;;;;5.70;3.15;;;16.00;99.90;;;-141.84;64.93;20765.09;4909793;29;20374;-76
2023/07/04 02:32:39;;;;;;;4.30;2.85;;;16.00;99.90;;;-141.84;65.49;20781.38;4905859;28;20652;-76
2023/07/04 02:35:09;;;;;;;4.65;2.95;;;15.90;99.90;;;-141.84;65.50;20777.28;4893657;29;20830;-76
2023/07/04 02:37:38;;;;;;;3.80;3.10;;;15.90;99.90;;;-141.84;65.49;20740.69;4903418;29;20229;-75
2023/07/04 02:40:08;;;;;;;3.20;2.80;;;15.90;99.90;;;-141.84;65.93;20756.97;4908480;29;20757;-75
2023/07/04 02:42:36;;;;;;;5.15;2.92;;;15.90;99.90;;;-141.84;65.34;20811.84;4901595;29;20832;-75
2023/07/04 02:45:06;;;;;;;4.43;2.95;;;15.90;99.90;;;-141.84;64.84;20824.06;4907634;29;20241;-75
2023/07/04 02:47:35;;;;;;;4.60;3.22;;;16.00;99.90;;;-141.84;64.88;20803.72;4908848;28;20305;-74
2023/07/04 02:50:04;;;;;;;3.83;2.78;;;16.00;99.90;;;-141.84;65.39;20787.47;4907325;29;20248;-76
2023/07/04 02:52:33;;;;;;;4.53;2.97;;;16.00;99.90;;;-141.84;64.41;20850.47;4900910;29;20353;-74
2023/07/04 02:55:02;;;;;;;4.72;3.25;;;16.20;99.90;;;-141.84;63.90;20834.22;4907212;29;20290;-76
2023/07/04 02:57:30;;;;;;;5.10;3.30;;;16.30;99.90;;;-141.84;65.06;20793.56;4907914;29;20670;-77
2023/07/04 02:59:59;;;;;;;3.30;3.00;;;16.20;99.90;;;-141.84;64.98;20803.72;4907768;29;20214;-73
2023/07/04 03:02:28;;;;;;;4.32;3.00;;;16.20;99.90;;;-141.84;64.59;20803.72;4900892;28;20246;-74
2023/07/04 03:04:57;;;;;;;5.53;3.10;;;16.30;99.90;;;-141.84;64.27;20870.81;4892197;29;20251;-75
2023/07/04 03:07:25;;;;;;;4.32;3.00;;;16.30;99.90;;;-141.84;65.18;20803.72;4912148;28;20304;-77
2023/07/04 03:09:54;;;;;;;4.18;3.45;;;16.30;99.90;;;-141.84;65.09;20820.00;4926752;28;20721;-78
2023/07/04 03:12:23;;;;;;;3.97;3.45;;;16.20;99.90;;;-141.84;65.25;20807.78;4920128;28;20275;-75
2023/07/04 03:14:51;;;;;;;3.40;3.10;;;16.20;99.90;;;-141.84;65.58;20795.59;4919185;28;20313;-74
2023/07/04 03:17:20;;;;;;;4.93;3.30;;;16.20;99.90;;;-141.84;65.04;20860.66;4921148;28;20244;-74
2023/07/04 03:19:48;;;;;;;3.90;3.05;;;16.20;99.90;;;-141.84;65.01;20852.50;4911369;29;20260;-75
2023/07/04 03:22:19;;;;;;;4.43;3.20;;;16.20;99.90;;;-141.84;65.18;20797.63;4899398;29;20230;-75
2023/07/04 03:24:47;;;;;;;3.47;2.92;;;16.30;99.90;;;-141.84;65.67;20779.31;4900704;29;20227;-75
2023/07/04 03:27:18;;;;;;;4.05;3.08;;;16.20;99.90;;;-141.84;66.10;20809.81;4888578;29;20318;-61
2023/07/04 03:29:46;;;;;;;3.78;2.83;;;16.20;99.90;;;-141.84;65.87;20797.63;4888303;29;20252;-62
2023/07/04 03:32:14;;;;;;;2.95;2.67;;;16.30;99.90;;;-141.84;65.42;20838.28;4904500;29;20237;-63
2023/07/04 03:34:44;;;;;;;5.22;2.92;;;16.30;99.90;;;-141.84;66.07;20781.38;4890534;29;20285;-62
2023/07/04 03:37:12;;;;;;;5.70;3.15;;;16.30;99.90;;;-141.84;65.85;20842.34;4887935;29;20273;-62
2023/07/04 03:39:40;;;;;;;4.07;3.30;;;16.30;99.90;;;-141.84;65.45;20830.16;4887305;29;20242;-60
2023/07/04 03:42:09;;;;;;;3.90;3.22;;;16.40;99.90;;;-141.84;65.55;20838.28;4889740;29;20245;-62
2023/07/04 03:44:38;;;;;;;3.50;3.15;;;16.30;99.90;;;-141.84;65.61;20834.22;4900249;29;20210;-61
2023/07/04 03:47:06;;;;;;;4.28;3.08;;;16.30;99.90;;;-141.84;65.72;20797.63;4889019;29;20261;-62
2023/07/04 03:49:35;;;;;;;4.38;3.10;;;16.30;99.90;;;-141.84;65.72;20822.03;4887585;29;20242;-61
2023/07/04 03:52:04;;;;;;;5.20;3.63;;;16.40;99.90;;;-141.84;64.69;20860.66;4887600;29;20318;-61
2023/07/04 03:54:32;;;;;;;4.97;3.30;;;16.40;99.90;;;-141.84;64.96;20883.00;4880301;29;20325;-62
2023/07/04 03:57:00;;;;;;;4.45;3.50;;;16.40;99.90;;;-141.84;64.78;20919.59;4887575;29;20272;-62
2023/07/04 03:59:29;;;;;;;5.43;3.63;;;16.50;99.90;;;-141.84;64.64;20895.19;4888261;29;20683;-63
2023/07/04 04:01:58;;;;;;;4.10;3.20;;;16.50;99.90;;;-141.84;63.02;20944.00;4887323;29;20270;-61
2023/07/04 04:04:27;;;;;;;5.95;3.15;;;16.70;99.90;;;-141.84;63.37;20958.22;4879739;29;20249;-62
2023/07/04 04:06:58;;;;;;;4.85;3.63;;;16.70;99.90;;;-141.84;63.73;20897.25;4887194;29;20244;-61
2023/07/04 04:09:27;;;;;;;6.03;3.33;;;16.80;99.90;;;-141.84;62.98;20958.22;4888221;29;20322;-61
2023/07/04 04:11:55;;;;;;;5.05;3.38;;;16.80;99.90;;;-141.84;63.76;20911.47;4894401;28;20205;-61
2023/07/04 04:14:23;;;;;;;3.95;3.45;;;16.80;99.90;;;-141.84;63.42;20923.66;4895339;28;20205;-61
2023/07/04 04:16:52;;;;;;;5.28;3.35;;;16.90;99.90;;;-141.84;63.24;20970.41;4896251;28;20313;-62
2023/07/04 04:19:21;;;;;;;3.42;3.10;;;16.90;99.90;;;-141.84;62.65;20988.72;4892345;29;20276;-61
2023/07/04 04:21:49;;;;;;;4.50;3.92;;;17.00;99.90;;;-141.84;62.00;20996.84;4890948;29;20261;-61
2023/07/04 04:24:18;;;;;;;5.00;3.38;;;17.10;99.90;;;-141.84;61.83;21011.09;4883365;29;20262;-62
2023/07/04 04:26:46;;;;;;;5.60;3.72;;;17.10;99.90;;;-141.84;62.23;20992.78;4891322;29;20242;-62
2023/07/04 04:29:17;;;;;;;5.72;3.50;;;17.20;99.90;;;-141.84;61.43;21043.59;4905327;28;20590;-62
2023/07/04 04:31:46;;;;;;;7.97;3.85;;;17.20;99.90;;;-141.84;61.28;21033.44;4909418;28;20238;-61
2023/07/04 04:34:17;;;;;;;5.90;4.07;;;17.30;99.90;;;-141.84;60.64;21039.53;4897957;28;20230;-63
2023/07/04 04:36:46;;;;;;;5.28;3.45;;;17.30;99.90;;;-141.84;61.15;21027.34;4898422;28;20321;-62
2023/07/04 04:39:15;;;;;;;5.25;3.35;;;17.40;99.90;;;-141.84;61.57;21031.41;4907046;28;20286;-61
2023/07/04 04:41:43;;;;;;;5.05;3.78;;;17.50;99.90;;;-141.84;61.09;21049.72;4906325;28;20669;-76
2023/07/04 04:44:11;;;;;;;4.70;3.47;;;17.50;99.90;;;-141.84;60.83;21118.84;4910840;29;20324;-77
2023/07/04 04:46:44;;;;;;;6.68;3.40;;;17.60;99.90;;;-141.84;60.61;21131.03;4901713;29;20797;-77
2023/07/04 04:49:13;;;;;;;6.47;4.15;;;17.70;99.90;;;-141.84;59.40;21129.00;4912974;29;20236;-74
2023/07/04 04:51:44;;;;;;;4.88;3.38;;;17.90;99.90;;;-141.84;58.91;21204.22;4912535;29;20237;-76
2023/07/04 04:54:15;;;;;;;5.82;3.60;;;18.00;99.90;;;-141.84;59.28;21238.78;4911188;29;20249;-75
2023/07/04 04:56:44;;;;;;;4.65;3.38;;;18.30;99.90;;;-141.84;55.45;21533.59;4901192;29;20238;-74
2023/07/04 04:59:13;;;;;;;4.68;3.50;;;19.00;99.90;;;-141.84;49.55;21968.72;4892328;29;20266;-78
2023/07/04 05:01:41;;;;;;;4.65;3.47;;;20.10;99.90;;;-141.84;46.79;22279.88;4892066;28;20333;-77
2023/07/04 05:04:09;;;;;;;5.05;3.70;;;21.30;99.90;;;-141.84;44.35;22564.59;4891664;29;20247;-76
2023/07/04 05:06:37;;;;;;;5.60;3.65;;;22.30;99.90;;;-141.84;42.89;22680.53;4884747;29;20238;-76
2023/07/04 05:09:05;;;;;;;5.78;3.85;;;22.90;99.90;;;-141.84;41.93;22847.28;4891929;29;20245;-74
2023/07/04 05:11:35;;;;;;;5.88;4.10;;;23.40;99.90;;;-141.84;41.21;22831.03;4896974;29;20303;-77
2023/07/04 05:14:07;;;;;;;5.32;3.45;;;23.40;99.90;;;-141.84;40.66;22993.75;4908327;29;20262;-77
2023/07/04 05:16:36;;;;;;;5.32;3.67;;;23.60;99.90;;;-141.84;40.10;23073.06;4891467;29;20266;-77
2023/07/04 05:19:04;;;;;;;7.72;3.40;;;23.90;99.90;;;-141.84;39.98;23022.22;4909937;29;20737;-76
2023/07/04 05:21:32;;;;;;;5.20;3.60;;;24.10;99.90;;;-141.84;40.74;22987.63;4906201;29;20258;-76
2023/07/04 05:24:00;;;;;;;6.03;3.53;;;24.20;99.90;;;-141.84;40.46;22967.31;4893988;29;20625;-76
2023/07/04 05:26:30;;;;;;;5.55;3.72;;;23.80;99.90;;;-141.84;40.29;23073.06;4884614;29;20286;-63
2023/07/04 05:29:02;;;;;;;6.40;3.70;;;23.70;99.90;;;-141.84;39.21;23172.75;4890116;29;20333;-62
2023/07/04 05:31:32;;;;;;;5.72;3.67;;;24.20;99.90;;;-141.84;38.97;23191.06;4889802;29;20311;-65
2023/07/04 05:34:00;;;;;;;4.53;3.33;;;24.40;99.90;;;-141.84;39.19;23040.53;4882178;29;20269;-62
2023/07/04 05:36:32;;;;;;;4.75;3.70;;;24.30;99.90;;;-141.84;40.76;22871.72;4883006;29;20658;-62
2023/07/04 05:39:03;;;;;;;7.60;4.03;;;24.20;99.90;;;-141.84;40.21;22910.34;4890214;29;20270;-62
2023/07/04 05:41:33;;;;;;;6.35;3.72;;;23.90;99.90;;;-141.84;40.94;22774.06;4895849;29;20250;-62
2023/07/04 05:44:08;;;;;;;6.30;3.88;;;23.40;99.90;;;-141.84;42.32;22517.81;4890082;29;20286;-62
2023/07/04 05:46:37;;;;;;;4.93;4.00;;;23.40;99.90;;;-141.84;43.46;22245.28;4882461;29;24461;-64
2023/07/04 05:49:07;;;;;;;6.00;3.47;;;22.80;99.90;;;-141.84;45.29;22056.19;4889209;29;20303;-63
2023/07/04 05:51:35;;;;;;;5.00;3.70;;;22.30;99.90;;;-141.84;46.50;21997.19;4889240;29;20242;-62
2023/07/04 05:54:04;;;;;;;6.43;3.65;;;21.90;99.90;;;-141.84;46.88;21938.22;4889841;29;20215;-62
2023/07/04 05:56:32;;;;;;;6.03;3.78;;;21.60;99.90;;;-141.84;47.57;21897.56;4882324;29;20242;-63
2023/07/04 05:59:03;;;;;;;5.32;3.53;;;21.60;99.90;;;-141.84;47.36;21915.88;4890029;29;20274;-62
2023/07/04 06:01:35;;;;;;;7.03;4.32;;;21.60;99.90;;;-141.84;46.96;21948.41;4889640;29;20235;-62
2023/07/04 06:04:06;;;;;;;6.35;3.65;;;21.60;99.90;;;-141.84;47.12;21928.06;4889462;28;20258;-62
2023/07/04 06:06:38;;;;;;;6.03;3.83;;;21.60;99.90;;;-141.84;45.75;21968.72;4882364;29;20692;-62
2023/07/04 06:09:09;;;;;;;6.82;3.72;;;21.60;99.90;;;-141.84;44.91;21938.22;4888968;29;20283;-63
2023/07/04 06:11:45;;;;;;;8.02;3.47;;;21.60;99.90;;;-141.84;46.37;21897.56;4894011;29;20216;-64
2023/07/04 06:14:18;;;;;;;7.78;3.80;;;21.50;99.90;;;-141.84;45.67;21911.78;4904771;29;20222;-62
2023/07/04 06:16:46;;;;;;;6.55;3.65;;;21.60;99.90;;;-141.84;45.56;21850.78;4897304;29;20325;-62
2023/07/04 06:19:14;;;;;;;7.50;3.67;;;21.60;99.90;;;-141.84;45.87;21974.84;4907931;29;20333;-62
2023/07/04 06:21:43;;;;;;;8.65;3.63;;;21.60;99.90;;;-141.84;45.36;22001.28;4902247;29;20602;-63
2023/07/04 06:24:16;;;;;;;8.35;3.63;;;21.70;99.90;;;-141.84;44.69;21985.00;4889051;29;20305;-63
2023/07/04 06:26:44;;;;;;;8.40;4.03;;;21.80;99.90;;;-141.84;45.07;21968.72;4890174;29;20214;-63
2023/07/04 06:29:13;;;;;;;5.50;3.90;;;21.80;99.90;;;-141.84;45.01;21976.88;4877151;29;20263;-63
2023/07/04 06:31:42;;;;;;;6.65;3.85;;;21.80;99.90;;;-141.84;44.27;21982.97;4888197;29;20266;-62
2023/07/04 06:34:12;;;;;;;4.95;3.50;;;21.80;99.90;;;-141.84;44.80;21942.31;4888605;29;20319;-62
2023/07/04 06:36:45;;;;;;;6.88;3.65;;;21.80;99.90;;;-141.84;44.45;21928.06;4885295;29;20245;-75
2023/07/04 06:39:14;;;;;;;4.63;3.30;;;21.80;99.90;;;-141.84;44.38;22027.72;4869651;29;20238;-76
2023/07/04 06:41:42;;;;;;;8.10;3.90;;;21.80;99.90;;;-141.84;44.87;22021.59;4901459;28;20214;-73
2023/07/04 06:44:10;;;;;;;9.15;4.13;;;21.80;99.90;;;-141.84;44.24;21928.06;4909949;28;20237;-74
2023/07/04 06:46:38;;;;;;;8.30;3.80;;;21.70;99.90;;;-141.84;44.95;21917.91;4903582;29;20844;-74
2023/07/04 06:49:08;;;;;;;8.00;4.15;;;21.60;99.90;;;-141.84;44.69;21958.56;4900664;29;20306;-73
2023/07/04 06:51:37;;;;;;;7.30;3.95;;;21.60;99.90;;;-141.84;44.12;21889.44;4890867;29;20821;-75
2023/07/04 06:54:05;;;;;;;7.88;3.47;;;21.50;99.90;;;-141.84;45.53;21812.16;4890155;29;20216;-75
2023/07/04 06:56:36;;;;;;;8.60;3.40;;;21.20;99.90;;;-141.84;46.50;21822.31;4883934;29;20305;-74
2023/07/04 06:59:05;;;;;;;7.05;3.33;;;21.10;99.90;;;-141.84;46.50;21840.63;4890998;29;20321;-74
2023/07/04 07:01:38;;;;;;;6.95;3.83;;;21.10;99.90;;;-141.84;45.85;21838.59;4890512;29;20380;-73
2023/07/04 07:04:08;;;;;;;7.13;3.30;;;21.00;99.90;;;-141.84;44.61;21858.94;4890547;29;20602;-75
2023/07/04 07:06:39;;;;;;;6.75;3.08;;;21.10;99.90;;;-141.84;45.00;21842.66;4883661;29;20269;-74
2023/07/04 07:09:08;;;;;;;7.28;3.47;;;21.10;99.90;;;-141.84;43.94;21820.28;4892035;29;20443;-72
2023/07/04 07:11:36;;;;;;;15.88;3.80;;;21.00;99.90;;;-141.84;43.40;21867.06;4892092;29;20774;-75
2023/07/04 07:14:05;;;;;;;6.65;3.30;;;21.10;99.90;;;-141.84;44.09;21830.47;4892348;29;20924;-73
2023/07/04 07:16:33;;;;;;;7.38;3.40;;;21.10;99.90;;;-141.84;44.47;21858.94;4891735;28;20234;-71
2023/07/04 07:19:02;;;;;;;8.45;3.70;;;21.10;99.90;;;-141.84;44.45;21832.50;4910684;29;20237;-73
2023/07/04 07:21:32;;;;;;;5.32;3.78;;;21.10;99.90;;;-141.84;44.87;21944.34;4906217;29;20318;-74
2023/07/04 07:24:02;;;;;;;5.03;3.45;;;21.20;99.90;;;-141.84;44.76;21964.66;4890966;29;20214;-73
2023/07/04 07:26:33;;;;;;;7.13;3.33;;;21.50;99.90;;;-141.84;43.30;22035.84;4884126;29;20262;-72
2023/07/04 07:29:01;;;;;;;6.18;3.50;;;21.60;99.90;;;-141.84;43.61;21980.94;4890979;29;20699;-73
2023/07/04 07:31:29;;;;;;;6.25;3.25;;;21.70;99.90;;;-141.84;43.44;22072.44;4890812;29;20290;-72
2023/07/04 07:34:03;;;;;;;5.70;3.45;;;21.80;99.90;;;-141.84;42.37;22074.47;4890263;29;20237;-74
2023/07/04 07:36:37;;;;;;;6.57;3.35;;;21.90;99.90;;;-141.84;43.37;22078.53;4882805;28;20228;-73
2023/07/04 07:39:09;;;;;;;7.65;3.53;;;21.90;99.90;;;-141.84;43.66;21993.13;4890295;29;20273;-74
2023/07/04 07:41:41;;;;;;;7.20;3.55;;;21.80;99.90;;;-141.84;44.31;21944.34;4903805;28;20214;-74
2023/07/04 07:44:10;;;;;;;5.68;3.47;;;21.50;99.90;;;-141.84;43.33;21928.06;4908673;28;20245;-74
2023/07/04 07:46:38;;;;;;;4.90;3.70;;;21.50;99.90;;;-141.84;43.54;21913.84;4902573;28;20328;-74
2023/07/04 07:49:07;;;;;;;8.88;3.60;;;21.50;99.90;;;-141.84;43.05;21968.72;4899103;29;20603;-73
2023/07/04 07:51:38;;;;;;;4.88;3.38;;;21.50;99.90;;;-141.84;42.99;21993.13;4889932;29;20234;-73
2023/07/04 07:54:08;;;;;;;5.68;3.30;;;21.60;99.90;;;-141.84;42.86;22011.44;4889660;29;20215;-74
2023/07/04 07:56:44;;;;;;;7.45;3.20;;;21.70;99.90;;;-141.84;43.14;22037.88;4882900;29;20269;-73
2023/07/04 07:59:13;;;;;;;6.38;3.20;;;21.80;99.90;;;-141.84;43.09;22046.00;4889847;29;20640;-72
2023/07/04 08:01:42;;;;;;;5.50;3.45;;;22.00;99.90;;;-141.84;42.72;22068.38;4889814;29;20238;-73
2023/07/04 08:04:10;;;;;;;5.65;3.70;;;22.10;99.90;;;-141.84;41.96;22111.09;4899274;29;20286;-73
2023/07/04 08:06:46;;;;;;;6.32;3.42;;;22.20;99.90;;;-141.84;42.25;22090.75;4908049;28;20237;-76
2023/07/04 08:09:16;;;;;;;6.40;3.50;;;22.20;99.90;;;-141.84;42.63;22074.47;4909128;28;20630;-75
2023/07/04 08:11:46;;;;;;;8.43;3.67;;;22.20;99.90;;;-141.84;42.46;22090.75;4913982;28;20881;-74
2023/07/04 08:14:18;;;;;;;8.27;3.90;;;22.20;99.90;;;-141.84;42.11;22123.28;4919821;28;20600;-72
2023/07/04 08:16:49;;;;;;;7.47;3.95;;;22.20;99.90;;;-141.84;41.48;22098.88;4917040;28;20245;-73
2023/07/04 08:19:21;;;;;;;10.20;3.40;;;22.20;99.90;;;-141.84;42.01;22113.13;4916289;28;20757;-74
2023/07/04 08:21:51;;;;;;;7.22;3.58;;;22.20;99.90;;;-141.84;42.12;22070.41;4908330;29;20233;-73
2023/07/04 08:24:20;;;;;;;6.22;3.15;;;22.20;99.90;;;-141.84;42.39;22080.56;4901694;29;20233;-71
2023/07/04 08:26:48;;;;;;;5.43;3.15;;;22.10;99.90;;;-141.84;41.96;22102.94;4909107;28;20313;-74
2023/07/04 08:29:16;;;;;;;4.50;3.00;;;22.20;99.90;;;-141.84;41.73;22050.06;4908549;28;20289;-73
2023/07/04 08:31:44;;;;;;;5.55;2.75;;;22.10;99.90;;;-141.84;42.21;22092.78;4907883;28;20235;-74
2023/07/04 08:34:13;;;;;;;7.28;3.58;;;22.20;99.90;;;-141.84;42.16;22090.75;4909169;28;20234;-74
2023/07/04 08:36:44;;;;;;;6.10;3.03;;;22.20;99.90;;;-141.84;42.25;22107.00;4908530;29;20242;-72
2023/07/04 08:39:13;;;;;;;8.13;3.58;;;22.30;99.90;;;-141.84;41.71;22161.91;4909131;29;20584;-73
2023/07/04 08:41:52;;;;;;;5.40;3.53;;;22.30;99.90;;;-141.84;41.98;22180.22;4923754;28;20748;-74
2023/07/04 08:44:24;;;;;;;8.05;3.42;;;22.40;99.90;;;-141.84;42.32;22176.16;4902493;29;20686;-73
2023/07/04 08:46:56;;;;;;;7.45;3.72;;;22.50;99.90;;;-141.84;41.89;22157.84;4910327;29;20318;-75
2023/07/04 08:49:35;;;;;;;10.65;4.38;;;22.50;99.90;;;-141.84;41.70;22141.59;4899741;29;20703;-75
2023/07/04 08:52:21;;;;;;;7.47;3.70;;;22.40;99.90;;;-141.84;41.29;22170.06;4889991;29;20234;-73
2023/07/04 08:54:51;;;;;;;7.07;3.88;;;22.40;99.90;;;-141.84;41.03;22210.72;4889951;29;20249;-74
2023/07/04 08:57:36;;;;;;;10.98;4.03;;;22.50;99.90;;;-141.84;41.05;22306.31;4889540;29;20257;-74
2023/07/04 09:00:12;;;;;;;7.97;4.20;;;22.60;99.90;;;-141.84;40.84;22277.84;4890696;29;20219;-72
2023/07/04 09:03:09;;;;;;;6.93;3.70;;;22.70;99.90;;;-141.84;41.43;22206.66;4886046;29;20270;-73
2023/07/04 09:05:53;;;;;;;6.80;3.03;;;22.70;99.90;;;-141.84;40.92;22172.09;4911360;29;20265;-72
2023/07/04 09:08:42;;;;;;;9.05;3.40;;;22.60;99.90;;;-141.84;41.08;22237.16;4909026;29;20276;-71
2023/07/04 09:11:13;;;;;;;6.32;2.85;;;22.50;99.90;;;-141.84;40.70;22245.28;4913610;29;20265;-62
2023/07/04 09:13:44;;;;;;;6.30;3.35;;;22.60;99.90;;;-141.84;40.64;22196.50;4930230;28;20265;-63
2023/07/04 09:16:28;;;;;;;5.82;3.30;;;22.70;99.90;;;-141.84;40.42;22294.09;4914436;29;20229;-62
2023/07/04 09:19:01;;;;;;;7.32;3.55;;;22.80;99.90;;;-141.84;40.02;22267.66;4930135;28;20237;-66
2023/07/04 09:21:32;;;;;;;8.18;3.83;;;22.80;99.90;;;-141.84;39.69;22267.66;4925556;28;20277;-63
2023/07/04 09:24:02;;;;;;;11.00;3.58;;;22.70;99.90;;;-141.84;39.25;22273.78;4892134;29;20242;-63
2023/07/04 09:26:41;;;;;;;6.18;3.53;;;22.80;99.90;;;-141.84;39.96;22290.03;4893988;29;20214;-62
2023/07/04 09:29:10;;;;;;;7.93;3.40;;;22.90;99.90;;;-141.84;39.66;22344.94;4897720;29;20262;-63
2023/07/04 09:31:42;;;;;;;6.20;3.22;;;22.90;99.90;;;-141.84;39.47;22408.00;4905979;29;20238;-63
2023/07/04 09:34:17;;;;;;;5.03;3.20;;;23.10;99.90;;;-141.84;39.67;22410.03;4901649;29;20235;-62
2023/07/04 09:36:46;;;;;;;7.50;3.33;;;23.20;99.90;;;-141.84;38.46;22405.97;4891760;29;20230;-63
2023/07/04 09:39:15;;;;;;;5.18;3.15;;;23.30;99.90;;;-141.84;39.00;22475.09;4891886;29;20239;-62
2023/07/04 09:41:57;;;;;;;4.95;3.20;;;23.50;99.90;;;-141.84;38.25;22475.09;4892233;29;20302;-61
2023/07/04 09:44:47;;;;;;;5.90;3.38;;;23.60;99.90;;;-141.84;37.70;22491.38;4910861;29;20229;-62
2023/07/04 09:47:27;;;;;;;7.55;3.67;;;23.70;99.90;;;-141.84;37.16;22532.06;4910172;29;20234;-62
2023/07/04 09:50:12;;;;;;;5.53;3.05;;;23.70;99.90;;;-141.84;37.07;22485.28;4910090;29;20312;-62
2023/07/04 09:52:41;;;;;;;3.72;3.03;;;23.70;99.90;;;-141.84;37.77;22462.91;4906219;29;20280;-63
2023/07/04 09:55:16;;;;;;;4.78;3.42;;;23.70;99.90;;;-141.84;37.75;22389.69;4910957;29;20234;-62
2023/07/04 09:57:46;;;;;;;4.80;2.95;;;23.50;99.90;;;-141.84;38.23;22351.03;4910587;29;20261;-62
2023/07/04 10:00:21;;;;;;;4.18;3.30;;;23.40;99.90;;;-141.84;37.64;22373.41;4909101;29;20361;-63
2023/07/04 10:02:52;;;;;;;7.10;3.70;;;23.30;99.90;;;-141.84;38.27;22412.06;4910264;29;20572;-63
2023/07/04 10:05:29;;;;;;;5.97;3.55;;;23.40;99.90;;;-141.84;37.79;22446.63;4910379;29;20265;-62
2023/07/04 10:08:09;;;;;;;5.97;3.53;;;23.50;99.90;;;-141.84;37.65;22519.84;4909988;29;20318;-61
2023/07/04 10:10:43;;;;;;;5.68;3.55;;;23.60;99.90;;;-141.84;37.59;22556.47;4902598;29;20309;-61
2023/07/04 10:13:13;;;;;;;6.47;3.70;;;23.80;99.90;;;-141.84;36.92;22593.06;4926965;28;20289;-64
2023/07/04 10:15:46;;;;;;;6.75;3.50;;;23.90;99.90;;;-141.84;37.43;22578.81;4914198;29;20242;-64
2023/07/04 10:18:27;;;;;;;9.20;3.70;;;23.90;99.90;;;-141.84;37.48;22593.06;4923192;28;20309;-64
2023/07/04 10:20:58;;;;;;;6.18;3.70;;;23.90;99.90;;;-141.84;37.19;22613.41;4909902;28;20339;-63